Nyk Meteor — 3ENA9 — position and weather

sailwx.info

Track history (hours):
 
Tides and Currents Weather Stations Pressure Air Temp Water Temp Dewpoint Dewpoint Depression Visibility Wind Speed Wind Dir Waves Ship Positions

Nyk Meteor

Last reported at 2018-Jan-19 01:00 UTC. Time now 2018-Jan-19 01:10 UTC.
Position N 32°07' W 081°08'.

Length 294 m; draft 11.9 m.

Type: Cargo ship. MMSI: 354212000.

Date/timePositionNaut miles runAvg speedWind from/ knotsBaromVisibWave heightAir tempDewpointWater temp
2018-Jan-19 01:00N 32°07' W 081°08'0 0.0
2018-Jan-19 00:30N 32°07' W 081°08'0 0.0
2018-Jan-19 00:00N 32°07' W 081°08'0 0.0
2018-Jan-18 23:30N 32°07' W 081°08'0 0.0
2018-Jan-18 23:00N 32°07' W 081°08'0 0.0
2018-Jan-18 21:12N 32°07' W 081°08'0 0.0
2018-Jan-18 21:00N 32°07' W 081°08'0 0.0
2018-Jan-18 20:30N 32°07' W 081°08'0 0.0
2018-Jan-18 20:00N 32°07' W 081°08'0 0.0
2018-Jan-18 19:30N 32°07' W 081°08'0 0.0
2018-Jan-18 19:00N 32°07' W 081°08'0 0.0
2018-Jan-18 18:30N 32°07' W 081°08'0 0.0
2018-Jan-18 18:00N 32°07' W 081°08'0 0.0
2018-Jan-18 17:30N 32°07' W 081°08'0 0.0
2018-Jan-18 17:00N 32°07' W 081°08'0 0.0
2018-Jan-18 16:30N 32°07' W 081°08'0 0.8
2018-Jan-18 16:00N 32°08' W 081°08'1 2.2
2018-Jan-18 15:30N 32°07' W 081°08'3 4.9
2018-Jan-18 14:59N 32°05' W 081°05'2 5.0
2018-Jan-18 14:31N 32°05' W 081°03'3 6.1
2018-Jan-18 14:00N 32°05' W 080°59'510.5
2018-Jan-18 13:29N 32°02' W 080°54'510.8
2018-Jan-18 13:01N 32°00' W 080°48'611.1
2018-Jan-18 12:31N 31°58' W 080°42'3 6.4
2018-Jan-18 12:01N 31°59' W 080°39'0 0.9
2018-Jan-18 11:29N 31°59' W 080°38'0 0.0
2018-Jan-18 11:00N 31°59' W 080°38'0 0.0
2018-Jan-18 10:30N 31°59' W 080°38'0 0.0
2018-Jan-18 09:59N 31°59' W 080°38'0 0.0
2018-Jan-18 09:29N 31°59' W 080°38'0 0.0
2018-Jan-18 09:00N 31°59' W 080°38'0 0.0
2018-Jan-18 08:29N 31°59' W 080°38'0 0.1
2018-Jan-18 08:00N 31°59' W 080°38'0 0.0
2018-Jan-18 07:29N 31°59' W 080°38'0 0.1
2018-Jan-18 06:59N 31°59' W 080°38'0 0.0
2018-Jan-18 06:29N 31°59' W 080°38'0 0.0
2018-Jan-18 05:59N 31°59' W 080°38'0 0.0
2018-Jan-18 05:30N 31°59' W 080°38'0 0.0
2018-Jan-18 05:00N 31°59' W 080°38'0 0.1
2018-Jan-18 04:26N 31°59' W 080°38'0 0.0
2018-Jan-18 03:06N 31°59' W 080°38'0 0.2
2018-Jan-18 02:59N 31°59' W 080°38'0 0.0
2018-Jan-18 02:29N 31°59' W 080°38'0 0.0
2018-Jan-18 02:00N 31°59' W 080°38'0 0.1
2018-Jan-18 01:30N 31°59' W 080°38'0 0.0
2018-Jan-18 00:57N 31°59' W 080°38'0 0.0
2018-Jan-18 00:00N 31°59' W 080°38'0 0.0
2018-Jan-17 23:56N 31°59' W 080°38'  
2018-Jan-11 04:08N 36°33' W 026°22'318.6
2018-Jan-11 03:59N 36°33' W 026°19'918.6
2018-Jan-11 03:30N 36°35' W 026°08'918.8
2018-Jan-11 03:00N 36°37' W 025°56'918.9
2018-Jan-11 02:30N 36°39' W 025°45'918.7
2018-Jan-11 02:00N 36°40' W 025°33'1018.9
2018-Jan-11 01:30N 36°42' W 025°22'919.0
2018-Jan-11 01:00N 36°43' W 025°10'919.0
2018-Jan-11 00:30N 36°45' W 024°59'1019.1
2018-Jan-11 00:00N 36°47' W 024°47'1019.2
2018-Jan-10 23:30N 36°49' W 024°35'919.0
2018-Jan-10 23:00N 36°51' W 024°23'1019.3
2018-Jan-10 22:30N 36°53' W 024°11'919.0
2018-Jan-10 22:00N 36°54' W 023°60'919.0
2018-Jan-10 21:30N 36°56' W 023°48'1018.9
2018-Jan-10 21:00N 36°57' W 023°36'  
Track history (hours):
 
Tides and Currents Weather Stations Pressure Air Temp Water Temp Dewpoint Dewpoint Depression Visibility Wind Speed Wind Dir Waves Ship Positions

Nyk Meteor

Last reported at 2018-Jan-19 01:00 UTC. Time now 2018-Jan-19 01:10 UTC.
Position N 32°07' W 081°08'.

Length 294 m; draft 11.9 m.

Type: Cargo ship. MMSI: 354212000.

Date/timePositionNaut miles runAvg speedWind from/ knotsBaromVisibWave heightAir tempDewpointWater temp
2018-Jan-19 01:00N 32°07' W 081°08'0 0.0
2018-Jan-19 00:30N 32°07' W 081°08'0 0.0
2018-Jan-19 00:00N 32°07' W 081°08'0 0.0
2018-Jan-18 23:30N 32°07' W 081°08'0 0.0
2018-Jan-18 23:00N 32°07' W 081°08'0 0.0
2018-Jan-18 21:12N 32°07' W 081°08'0 0.0
2018-Jan-18 21:00N 32°07' W 081°08'0 0.0
2018-Jan-18 20:30N 32°07' W 081°08'0 0.0
2018-Jan-18 20:00N 32°07' W 081°08'0 0.0
2018-Jan-18 19:30N 32°07' W 081°08'0 0.0
2018-Jan-18 19:00N 32°07' W 081°08'0 0.0
2018-Jan-18 18:30N 32°07' W 081°08'0 0.0
2018-Jan-18 18:00N 32°07' W 081°08'0 0.0
2018-Jan-18 17:30N 32°07' W 081°08'0 0.0
2018-Jan-18 17:00N 32°07' W 081°08'0 0.0
2018-Jan-18 16:30N 32°07' W 081°08'0 0.8
2018-Jan-18 16:00N 32°08' W 081°08'1 2.2
2018-Jan-18 15:30N 32°07' W 081°08'3 4.9
2018-Jan-18 14:59N 32°05' W 081°05'2 5.0
2018-Jan-18 14:31N 32°05' W 081°03'3 6.1
2018-Jan-18 14:00N 32°05' W 080°59'510.5
2018-Jan-18 13:29N 32°02' W 080°54'510.8
2018-Jan-18 13:01N 32°00' W 080°48'611.1
2018-Jan-18 12:31N 31°58' W 080°42'3 6.4
2018-Jan-18 12:01N 31°59' W 080°39'0 0.9
2018-Jan-18 11:29N 31°59' W 080°38'0 0.0
2018-Jan-18 11:00N 31°59' W 080°38'0 0.0
2018-Jan-18 10:30N 31°59' W 080°38'0 0.0
2018-Jan-18 09:59N 31°59' W 080°38'0 0.0
2018-Jan-18 09:29N 31°59' W 080°38'0 0.0
2018-Jan-18 09:00N 31°59' W 080°38'0 0.0
2018-Jan-18 08:29N 31°59' W 080°38'0 0.1
2018-Jan-18 08:00N 31°59' W 080°38'0 0.0
2018-Jan-18 07:29N 31°59' W 080°38'0 0.1
2018-Jan-18 06:59N 31°59' W 080°38'0 0.0
2018-Jan-18 06:29N 31°59' W 080°38'0 0.0
2018-Jan-18 05:59N 31°59' W 080°38'0 0.0
2018-Jan-18 05:30N 31°59' W 080°38'0 0.0
2018-Jan-18 05:00N 31°59' W 080°38'0 0.1
2018-Jan-18 04:26N 31°59' W 080°38'0 0.0
2018-Jan-18 03:06N 31°59' W 080°38'0 0.2
2018-Jan-18 02:59N 31°59' W 080°38'0 0.0
2018-Jan-18 02:29N 31°59' W 080°38'0 0.0
2018-Jan-18 02:00N 31°59' W 080°38'0 0.1
2018-Jan-18 01:30N 31°59' W 080°38'0 0.0
2018-Jan-18 00:57N 31°59' W 080°38'0 0.0
2018-Jan-18 00:00N 31°59' W 080°38'0 0.0
2018-Jan-17 23:56N 31°59' W 080°38'  
2018-Jan-11 04:08N 36°33' W 026°22'318.6
2018-Jan-11 03:59N 36°33' W 026°19'918.6
2018-Jan-11 03:30N 36°35' W 026°08'918.8
2018-Jan-11 03:00N 36°37' W 025°56'918.9
2018-Jan-11 02:30N 36°39' W 025°45'918.7
2018-Jan-11 02:00N 36°40' W 025°33'1018.9
2018-Jan-11 01:30N 36°42' W 025°22'919.0
2018-Jan-11 01:00N 36°43' W 025°10'919.0
2018-Jan-11 00:30N 36°45' W 024°59'1019.1
2018-Jan-11 00:00N 36°47' W 024°47'1019.2
2018-Jan-10 23:30N 36°49' W 024°35'919.0
2018-Jan-10 23:00N 36°51' W 024°23'1019.3
2018-Jan-10 22:30N 36°53' W 024°11'919.0
2018-Jan-10 22:00N 36°54' W 023°60'919.0
2018-Jan-10 21:30N 36°56' W 023°48'1018.9
2018-Jan-10 21:00N 36°57' W 023°36'  

Dump ship's entire track history